createdAt,value
2022-09-21T00:03:20.503Z,412.50
2022-09-21T00:08:18.650Z,419.00
2022-09-21T00:13:19.979Z,426.50
2022-09-21T00:18:18.331Z,431.30
2022-09-21T00:23:17.644Z,421.60
2022-09-21T00:28:20.051Z,410.70
2022-09-21T00:33:16.135Z,431.80
2022-09-21T00:38:15.525Z,431.70
2022-09-21T00:43:14.665Z,406.30
2022-09-21T00:48:14.037Z,413.50
2022-09-21T00:53:14.130Z,419.90
2022-09-21T00:58:12.496Z,430.70
2022-09-21T01:03:11.740Z,411.50
2022-09-21T01:08:10.847Z,418.00
2022-09-21T01:13:10.173Z,412.80
2022-09-21T01:18:08.540Z,415.00
2022-09-21T01:23:08.706Z,338.50
2022-09-21T01:28:08.845Z,354.30
2022-09-21T01:33:07.286Z,395.50
2022-09-21T01:38:06.400Z,406.30
2022-09-21T01:43:05.732Z,419.00
2022-09-21T01:48:05.120Z,400.30
2022-09-21T01:53:04.274Z,322.50
2022-09-21T01:58:04.388Z,439.40
2022-09-21T02:03:01.761Z,426.90
2022-09-21T02:08:01.936Z,417.30
2022-09-21T02:13:01.041Z,420.60
2022-09-21T02:17:59.399Z,414.00
2022-09-21T02:22:59.569Z,418.90
2022-09-21T02:27:59.682Z,408.10
2022-09-21T02:33:00.009Z,432.00
2022-09-21T02:37:58.309Z,426.30
2022-09-21T02:42:57.671Z,423.80
2022-09-21T02:47:55.863Z,407.00
2022-09-21T02:52:55.036Z,378.30
2022-09-21T02:57:54.165Z,410.30
2022-09-21T03:02:53.502Z,414.10
2022-09-21T03:07:52.891Z,459.00
2022-09-21T03:12:52.110Z,421.10
2022-09-21T03:17:51.202Z,371.00
2022-09-21T03:22:50.718Z,417.90
2022-09-21T03:27:49.956Z,423.70
2022-09-21T03:32:49.209Z,411.30
2022-09-21T03:37:48.411Z,389.30
2022-09-21T03:42:47.629Z,392.90
2022-09-21T03:47:47.813Z,424.10
2022-09-21T03:52:45.964Z,403.90
2022-09-21T03:57:46.125Z,433.80
2022-09-21T04:02:44.260Z,418.20
2022-09-21T04:07:43.695Z,415.80
2022-09-21T04:12:42.830Z,404.10
2022-09-21T04:17:41.174Z,440.10
2022-09-21T04:22:44.419Z,437.40
2022-09-21T04:27:39.552Z,443.10
2022-09-21T04:32:39.662Z,414.20
2022-09-21T04:37:40.026Z,434.40
2022-09-21T04:42:38.136Z,442.80
2022-09-21T04:47:38.461Z,434.80
2022-09-21T04:52:37.774Z,418.10
2022-09-21T04:57:36.075Z,432.20
2022-09-21T05:02:35.452Z,439.70
2022-09-21T05:07:35.553Z,421.70
2022-09-21T05:12:32.934Z,424.10
2022-09-21T05:17:33.083Z,431.80
2022-09-21T05:22:32.415Z,416.50
2022-09-21T05:27:31.772Z,411.20
2022-09-21T05:32:30.932Z,412.60
2022-09-21T05:37:30.037Z,422.20
2022-09-21T05:42:29.399Z,399.30
2022-09-21T05:47:29.543Z,416.20
2022-09-21T05:52:27.952Z,416.50
2022-09-21T05:57:30.676Z,410.60
2022-09-21T06:02:26.343Z,420.30
2022-09-21T06:07:26.498Z,485.70
2022-09-21T06:12:24.706Z,399.90
2022-09-21T06:17:22.850Z,425.60
2022-09-21T06:22:23.123Z,427.80
2022-09-21T06:27:22.306Z,425.00
2022-09-21T06:32:23.486Z,427.80
2022-09-21T06:37:20.649Z,443.80
2022-09-21T06:42:19.845Z,427.30
2022-09-21T06:47:19.072Z,439.80
2022-09-21T06:52:18.214Z,449.70
2022-09-21T06:57:19.024Z,439.70
2022-09-21T07:02:18.804Z,422.40
2022-09-21T07:07:15.999Z,423.70
2022-09-21T07:12:15.221Z,440.10
2022-09-21T07:17:15.636Z,451.70
2022-09-21T07:22:13.674Z,412.00
2022-09-21T07:27:12.917Z,372.70
2022-09-21T07:32:12.072Z,420.60
2022-09-21T07:37:11.313Z,431.70
2022-09-21T07:42:09.441Z,430.70
2022-09-21T07:47:09.835Z,414.50
2022-09-21T07:52:10.971Z,422.90
2022-09-21T07:57:08.263Z,435.00
2022-09-21T08:02:07.432Z,410.80
2022-09-21T08:07:06.572Z,421.40
2022-09-21T08:12:06.020Z,406.60
2022-09-21T08:17:03.146Z,420.10
2022-09-21T08:22:04.308Z,379.30
2022-09-21T08:27:03.425Z,431.30
2022-09-21T08:32:02.813Z,330.20
2022-09-21T08:37:01.965Z,387.80
2022-09-21T08:42:01.284Z,399.40
2022-09-21T08:47:01.736Z,344.00
2022-09-21T08:51:59.853Z,453.80
2022-09-21T08:57:05.533Z,414.40
2022-09-21T09:01:58.497Z,398.50
2022-09-21T09:06:57.666Z,402.80
2022-09-21T09:11:56.789Z,396.00
2022-09-21T09:16:56.123Z,405.10
2022-09-21T09:21:55.468Z,414.10
2022-09-21T09:26:55.638Z,400.40
2022-09-21T09:31:53.834Z,416.40
2022-09-21T09:36:58.803Z,379.50
2022-09-21T09:41:53.280Z,402.80
2022-09-21T09:46:52.575Z,407.50
2022-09-21T09:51:50.635Z,404.70
2022-09-21T09:56:49.888Z,429.90
2022-09-21T10:01:48.172Z,420.80
2022-09-21T10:06:48.366Z,437.60
2022-09-21T10:11:47.591Z,392.80
2022-09-21T10:16:46.754Z,418.90
2022-09-21T10:21:51.293Z,413.90
2022-09-21T10:26:45.073Z,398.70
2022-09-21T10:31:44.439Z,405.10
2022-09-21T10:36:42.587Z,409.70
2022-09-21T10:41:41.943Z,428.00
2022-09-21T10:46:42.297Z,405.90
2022-09-21T10:51:41.244Z,417.30
2022-09-21T10:56:40.396Z,420.50
2022-09-21T11:01:39.615Z,415.10
2022-09-21T11:06:37.844Z,407.90
2022-09-21T11:11:38.040Z,420.00
2022-09-21T11:16:37.223Z,398.30
2022-09-21T11:21:37.466Z,420.40
2022-09-21T11:26:35.679Z,412.00
2022-09-21T11:31:35.831Z,398.40
2022-09-21T11:36:33.969Z,413.00
2022-09-21T11:41:32.421Z,407.00
2022-09-21T11:46:33.601Z,423.90
2022-09-21T11:51:33.786Z,410.40
2022-09-21T11:56:31.912Z,404.20
2022-09-21T12:01:30.041Z,363.90
2022-09-21T12:06:29.427Z,375.70
2022-09-21T12:11:29.538Z,349.70
2022-09-21T12:16:27.741Z,427.50
2022-09-21T12:21:26.907Z,392.40
2022-09-21T12:26:25.134Z,417.40
2022-09-21T12:31:25.298Z,412.90
2022-09-21T12:36:24.440Z,413.20
2022-09-21T12:41:23.626Z,407.30
2022-09-21T12:46:22.791Z,421.50
2022-09-21T12:51:21.947Z,390.60
2022-09-21T12:56:21.121Z,405.40
2022-09-21T13:01:21.390Z,416.50
2022-09-21T13:06:20.589Z,411.30
2022-09-21T13:11:18.808Z,386.60
2022-09-21T13:16:18.013Z,423.50
2022-09-21T13:21:17.171Z,408.30
2022-09-21T13:26:16.701Z,418.60
2022-09-21T13:31:37.096Z,442.40
2022-09-21T13:36:14.855Z,427.30
2022-09-21T13:41:14.204Z,427.40
2022-09-21T13:46:14.252Z,408.40
2022-09-21T13:51:12.461Z,414.00
2022-09-21T13:56:12.633Z,405.80
2022-09-21T14:01:35.517Z,410.00
2022-09-21T14:06:10.018Z,394.40
2022-09-21T14:11:10.155Z,395.30
2022-09-21T14:16:09.337Z,419.10
2022-09-21T14:21:07.508Z,417.20
2022-09-21T14:26:06.637Z,421.90
2022-09-21T14:31:05.972Z,423.70
2022-09-21T14:36:05.203Z,418.90
2022-09-21T14:41:04.374Z,382.70
2022-09-21T14:46:04.516Z,434.10
2022-09-21T14:51:02.891Z,419.50
2022-09-21T14:56:02.034Z,421.00
2022-09-21T15:01:01.368Z,428.30
2022-09-21T15:06:00.690Z,430.90
2022-09-21T15:10:59.837Z,415.90
2022-09-21T15:15:58.991Z,420.80
2022-09-21T15:20:59.128Z,427.80
2022-09-21T15:25:57.328Z,416.80
2022-09-21T15:30:55.455Z,447.10
2022-09-21T15:35:55.663Z,423.80
2022-09-21T15:40:54.863Z,408.10
2022-09-21T15:45:54.024Z,421.90
2022-09-21T15:50:54.326Z,412.20
2022-09-21T15:55:52.473Z,408.00
2022-09-21T16:00:51.658Z,408.40
2022-09-21T16:05:52.011Z,405.20
2022-09-21T16:10:50.958Z,404.80
2022-09-21T16:15:49.358Z,410.70
2022-09-21T16:20:49.555Z,372.80
2022-09-21T16:25:47.710Z,367.20
2022-09-21T16:30:47.082Z,399.10
2022-09-21T16:35:46.234Z,412.00
2022-09-21T16:40:45.702Z,413.90
2022-09-21T16:45:44.837Z,366.80
2022-09-21T16:50:43.966Z,404.20
2022-09-21T16:55:44.261Z,411.60
2022-09-21T17:00:44.654Z,413.30
2022-09-21T17:05:42.718Z,427.50
2022-09-21T17:10:40.995Z,432.20
2022-09-21T17:15:40.304Z,402.70
2022-09-21T17:20:39.584Z,398.70
2022-09-21T17:25:38.929Z,398.50
2022-09-21T17:30:39.059Z,430.90
2022-09-21T17:35:40.488Z,317.80
2022-09-21T17:40:37.634Z,402.50
2022-09-21T17:45:36.786Z,402.40
2022-09-21T17:50:35.861Z,367.30
2022-09-21T17:55:34.402Z,367.30
2022-09-21T18:00:34.819Z,367.30
2022-09-21T18:05:32.976Z,367.30
2022-09-21T18:10:33.145Z,367.30
2022-09-21T18:15:32.310Z,367.30
2022-09-21T18:20:31.467Z,367.30
2022-09-21T18:25:29.792Z,367.30
2022-09-21T18:30:29.197Z,367.30
2022-09-21T18:35:29.156Z,352.60
2022-09-21T18:40:27.485Z,352.30
2022-09-21T18:45:27.885Z,352.30
2022-09-21T18:50:28.010Z,352.30
2022-09-21T18:55:25.326Z,352.30
2022-09-21T19:00:26.785Z,352.30
2022-09-21T19:05:24.708Z,430.90
2022-09-21T19:10:24.032Z,383.90
2022-09-21T19:15:42.176Z,382.40
2022-09-21T19:20:24.154Z,399.70
2022-09-21T19:25:20.910Z,398.60
2022-09-21T19:30:20.057Z,371.90
2022-09-21T19:35:19.375Z,386.60
2022-09-21T19:40:19.782Z,408.90
2022-09-21T19:45:17.952Z,468.30
2022-09-21T19:50:19.078Z,428.90
2022-09-21T19:55:16.416Z,409.50
2022-09-21T20:00:15.551Z,429.70
2022-09-21T20:05:15.889Z,404.40
2022-09-21T20:10:15.210Z,354.00
2022-09-21T20:15:13.558Z,411.90
2022-09-21T20:20:12.635Z,372.10
2022-09-21T20:25:11.962Z,300.90
2022-09-21T20:30:11.337Z,325.60
2022-09-21T20:35:09.605Z,325.60
2022-09-21T20:40:09.963Z,325.60
2022-09-21T20:45:10.250Z,325.60
2022-09-21T20:50:08.543Z,325.60
2022-09-21T20:55:07.875Z,325.60
2022-09-21T21:00:07.192Z,325.60
2022-09-21T21:05:06.333Z,325.60
2022-09-21T21:10:05.482Z,325.60
2022-09-21T21:15:04.857Z,325.60
2022-09-21T21:20:05.157Z,325.60
2022-09-21T21:25:02.267Z,325.60
2022-09-21T21:30:02.667Z,325.60
2022-09-21T21:35:01.824Z,325.60
2022-09-21T21:40:02.042Z,325.60
2022-09-21T21:45:01.220Z,325.60
2022-09-21T21:50:00.318Z,325.60
2022-09-21T21:54:58.626Z,325.60
2022-09-21T21:59:58.002Z,325.60
2022-09-21T22:04:58.111Z,325.60
2022-09-21T22:09:56.428Z,325.60
2022-09-21T22:14:56.754Z,325.60
2022-09-21T22:19:56.086Z,325.60
2022-09-21T22:24:54.395Z,325.60
2022-09-21T22:29:53.767Z,325.60
2022-09-21T22:34:52.875Z,325.60
2022-09-21T22:39:53.217Z,325.60
2022-09-21T22:44:51.364Z,325.60
2022-09-21T22:49:51.509Z,325.60
2022-09-21T22:54:49.804Z,325.60
2022-09-21T22:59:49.195Z,325.60
2022-09-21T23:04:49.386Z,325.60
2022-09-21T23:09:48.622Z,325.60
2022-09-21T23:14:47.802Z,325.60
2022-09-21T23:19:46.988Z,325.60
2022-09-21T23:24:45.179Z,325.60
2022-09-21T23:29:47.394Z,325.60
2022-09-21T23:34:43.616Z,325.60
2022-09-21T23:39:42.832Z,325.60
2022-09-21T23:44:42.029Z,325.60
2022-09-21T23:49:41.237Z,325.60
2022-09-21T23:54:41.460Z,325.60
2022-09-21T23:59:40.754Z,326.50
